Time;durP1;ratioP1;P1;durP2;ratioP2;P2;SDS_P1;SDS_P2;PMS_P1;PMS_P2;Temp;Humidity;BMP_temperature;BMP_pressure;BME280_temperature;BME280_humidity;BME280_pressure;Samples;Min_cycle;Max_cycle;Signal;HPM_P1;HPM_P2
2022/06/23 00:01:13;;;;;;;16.45;8.70;;;;;;;15.72;68.94;101142.06;6307987;22;20015;-85
2022/06/23 00:03:39;;;;;;;18.55;9.07;;;;;;;16.02;69.89;101190.88;6308443;22;20003;-85
2022/06/23 00:06:08;;;;;;;16.55;9.27;;;;;;;15.99;70.36;101185.09;6308135;22;20024;-85
2022/06/23 00:08:46;;;;;;;20.67;9.60;;;;;;;15.77;69.79;101145.13;6307815;22;19999;-85
2022/06/23 00:11:24;;;;;;;16.13;9.85;;;;;;;15.66;70.76;101155.56;6307635;22;20004;-85
2022/06/23 00:13:50;;;;;;;17.73;10.73;;;;;;;15.90;71.96;101185.81;6307790;22;20337;-85
2022/06/23 00:16:27;;;;;;;17.45;9.80;;;;;;;15.89;71.68;101181.56;6307644;22;20110;-84
2022/06/23 00:18:52;;;;;;;16.15;10.35;;;;;;;15.81;72.58;101169.13;6307737;22;20053;-84
2022/06/23 00:21:30;;;;;;;24.13;10.88;;;;;;;15.88;72.67;101183.34;6307903;22;20431;-86
2022/06/23 00:24:00;;;;;;;15.77;10.40;;;;;;;15.74;73.38;101170.59;6308159;22;20357;-84
2022/06/23 00:26:29;;;;;;;18.27;11.23;;;;;;;15.85;74.18;101180.16;6281104;22;20042;-82
2022/06/23 00:29:03;;;;;;;18.60;11.15;;;;;;;15.86;74.13;101179.22;6308067;22;20076;-85
2022/06/23 00:31:41;;;;;;;16.50;11.68;;;;;;;15.60;74.23;101137.81;6307722;22;19999;-84
2022/06/23 00:34:21;;;;;;;18.80;11.23;;;;;;;15.78;74.53;101172.00;6254844;22;20011;-83
2022/06/23 00:37:02;;;;;;;21.90;11.83;;;;;;;15.64;74.92;101152.28;6307375;22;20007;-85
2022/06/23 00:39:59;;;;;;;20.75;12.10;;;;;;;15.72;74.52;101172.47;6307588;22;20027;-84
2022/06/23 00:42:30;;;;;;;17.73;11.65;;;;;;;15.63;76.48;101176.66;6288331;22;20012;-83
2022/06/23 00:45:19;;;;;;;18.70;12.38;;;;;;;15.60;76.41;101181.22;6307694;22;20003;-83
2022/06/23 00:47:50;;;;;;;21.73;12.77;;;;;;;15.57;77.36;101171.88;6307617;22;20361;-84
2022/06/23 00:50:18;;;;;;;24.70;12.88;;;;;;;15.52;77.51;101183.59;6307455;22;20010;-84
2022/06/23 00:52:55;;;;;;;21.45;12.75;;;;;;;15.48;78.01;101178.63;6307502;22;20007;-84
2022/06/23 00:55:31;;;;;;;22.00;13.10;;;;;;;15.47;77.47;101174.38;6307267;22;20011;-84
2022/06/23 00:58:03;;;;;;;18.60;11.45;;;;;;;15.38;78.39;101185.50;6307424;22;19999;-84
2022/06/23 01:00:40;;;;;;;22.05;12.98;;;;;;;15.40;78.47;101178.41;6307393;22;20033;-84
2022/06/23 01:03:40;;;;;;;23.27;13.02;;;;;;;15.37;78.00;101176.03;6305907;22;20026;-85
2022/06/23 01:06:30;;;;;;;21.27;13.13;;;;;;;14.25;78.51;100995.72;6306975;22;20039;-84
2022/06/23 01:09:33;;;;;;;24.13;13.23;;;;;;;14.44;80.13;101023.72;6306951;22;20023;-85
2022/06/23 01:12:33;;;;;;;22.23;13.63;;;;;;;14.47;80.25;101045.16;6242624;22;20158;-85
2022/06/23 01:15:23;;;;;;;24.10;14.05;;;;;;;14.69;81.29;101078.13;6242680;23;20004;-83
2022/06/23 01:18:25;;;;;;;25.38;14.10;;;;;;;15.21;80.18;101158.19;6242670;23;20008;-87
2022/06/23 01:21:34;;;;;;;23.33;13.35;;;;;;;15.18;80.67;101163.63;6093653;23;20006;-85
2022/06/23 01:24:39;;;;;;;22.70;13.85;;;;;;;15.13;80.88;101155.34;6094143;23;20014;-85
2022/06/23 01:27:35;;;;;;;24.55;15.32;;;;;;;15.12;82.07;101145.88;6094255;23;20014;-86
2022/06/23 01:30:07;;;;;;;24.63;14.27;;;;;;;14.91;82.78;101124.13;6094362;23;20397;-86
2022/06/23 01:32:35;;;;;;;25.92;14.60;;;;;;;14.93;82.92;101138.66;6093775;23;20010;-85
2022/06/23 01:35:03;;;;;;;28.27;15.05;;;;;;;15.02;83.55;101151.91;6093664;23;20086;-84
2022/06/23 01:37:29;;;;;;;25.52;15.98;;;;;;;15.00;84.03;101146.81;6094175;23;20014;-84
2022/06/23 01:40:24;;;;;;;26.95;16.38;;;;;;;14.99;82.98;101152.16;6174333;22;20019;-84
2022/06/23 01:42:58;;;;;;;24.45;15.73;;;;;;;14.95;84.37;101153.34;6279513;22;20361;-84
2022/06/23 01:45:30;;;;;;;26.48;16.27;;;;;;;14.93;84.61;101151.66;6306519;22;20002;-84
2022/06/23 01:48:08;;;;;;;28.27;16.45;;;;;;;14.92;84.28;101162.19;6306490;22;20336;-84
2022/06/23 01:50:50;;;;;;;28.00;15.73;;;;;;;14.88;84.33;101158.16;6278726;22;20060;-83
2022/06/23 01:53:33;;;;;;;24.20;16.33;;;;;;;14.86;84.33;101157.47;6279246;22;19999;-84
2022/06/23 01:56:18;;;;;;;22.73;14.32;;;;;;;14.75;84.60;101166.06;6280709;22;20456;-84
2022/06/23 01:58:47;;;;;;;24.52;15.35;;;;;;;14.73;84.84;101165.34;6306429;22;20003;-84
2022/06/23 02:01:19;;;;;;;28.65;15.45;;;;;;;14.62;85.38;101153.13;6306634;22;20007;-84
2022/06/23 02:03:49;;;;;;;26.25;15.52;;;;;;;14.36;86.19;101128.25;6306276;22;19999;-84
2022/06/23 02:06:38;;;;;;;26.10;16.25;;;;;;;14.63;85.77;101152.19;6279618;22;20006;-83
2022/06/23 02:09:37;;;;;;;25.65;15.70;;;;;;;14.61;85.24;101153.25;6306230;22;19999;-82
2022/06/23 02:12:13;;;;;;;26.42;16.45;;;;;;;14.32;86.04;101121.59;6273956;22;20086;-83
2022/06/23 02:14:49;;;;;;;25.40;16.88;;;;;;;14.56;86.29;101151.03;6279044;22;20082;-83
2022/06/23 02:17:38;;;;;;;28.88;15.77;;;;;;;14.48;85.98;101139.53;6306379;22;20010;-84
2022/06/23 02:20:16;;;;;;;29.55;16.80;;;;;;;14.37;86.30;101140.31;6306487;22;20082;-83
2022/06/23 02:22:45;;;;;;;25.50;16.20;;;;;;;14.46;86.90;101150.03;6306678;22;20090;-83
2022/06/23 02:25:31;;;;;;;29.23;17.58;;;;;;;14.26;86.33;101115.13;6279020;22;20115;-84
2022/06/23 02:28:12;;;;;;;26.48;16.88;;;;;;;14.45;86.56;101156.16;6306362;22;20329;-84
2022/06/23 02:30:42;;;;;;;22.15;15.30;;;;;;;14.38;86.90;101152.34;6307043;22;19999;-83
2022/06/23 02:33:25;;;;;;;32.92;16.35;;;;;;;14.32;86.71;101139.78;6306373;22;20116;-84
2022/06/23 02:36:18;;;;;;;27.13;16.20;;;;;;;14.33;86.48;101149.25;6306519;22;20022;-82
2022/06/23 02:38:51;;;;;;;27.10;16.20;;;;;;;14.23;87.18;101133.50;6306748;22;20003;-84
2022/06/23 02:41:29;;;;;;;29.70;16.88;;;;;;;14.22;86.64;101134.44;6306434;22;20030;-83
2022/06/23 02:44:15;;;;;;;25.25;16.42;;;;;;;14.07;86.42;101114.81;6278689;22;20003;-83
2022/06/23 02:47:06;;;;;;;23.73;15.77;;;;;;;14.23;87.05;101143.88;6306627;22;19999;-84
2022/06/23 02:49:56;;;;;;;29.67;17.57;;;;;;;14.23;86.91;101151.69;6278528;22;20003;-84
2022/06/23 02:52:39;;;;;;;30.48;16.65;;;;;;;14.22;86.97;101144.84;6278820;22;20006;-84
2022/06/23 02:55:35;;;;;;;29.52;17.70;;;;;;;14.26;86.14;101137.66;6306723;22;20056;-85
2022/06/23 02:58:13;;;;;;;29.50;17.50;;;;;;;14.26;86.34;101135.91;6306971;22;20313;-85
2022/06/23 03:00:46;;;;;;;29.67;17.45;;;;;;;13.95;86.57;101082.75;6306371;22;20003;-86
2022/06/23 03:03:19;;;;;;;27.17;16.77;;;;;;;14.24;86.46;101131.72;6306119;22;20027;-85
2022/06/23 03:06:02;;;;;;;27.15;17.08;;;;;;;14.26;85.65;101135.06;6306370;22;20379;-85
2022/06/23 03:08:57;;;;;;;24.65;17.70;;;;;;;14.06;85.63;101101.00;6306736;22;20034;-86
2022/06/23 03:11:51;;;;;;;26.65;16.65;;;;;;;13.90;85.51;101078.84;6305780;22;20031;-85
2022/06/23 03:14:23;;;;;;;27.50;17.23;;;;;;;14.20;85.63;101117.31;6306369;22;20074;-85
2022/06/23 03:16:58;;;;;;;31.05;17.83;;;;;;;14.24;84.69;101114.38;6308512;22;20003;-85
2022/06/23 03:19:31;;;;;;;31.80;17.17;;;;;;;14.33;84.21;101121.50;6308526;22;20009;-85
2022/06/23 03:22:25;;;;;;;25.98;17.00;;;;;;;14.32;84.42;101119.84;6308079;22;20006;-85
2022/06/23 03:25:14;;;;;;;23.05;15.80;;;;;;;13.96;83.75;101058.47;6308339;22;19999;-84
2022/06/23 03:27:41;;;;;;;27.13;15.52;;;;;;;14.34;83.74;101114.53;6308432;22;20007;-82
2022/06/23 03:30:20;;;;;;;24.60;16.27;;;;;;;14.36;83.13;101115.25;6308205;22;20007;-84
2022/06/23 03:32:52;;;;;;;24.30;16.73;;;;;;;14.32;82.86;101101.66;6308167;22;20057;-84
2022/06/23 03:35:24;;;;;;;27.92;17.13;;;;;;;14.37;82.96;101106.53;6307953;22;20013;-86
2022/06/23 03:38:15;;;;;;;26.27;15.50;;;;;;;14.42;82.17;101106.16;6308694;22;20011;-84
2022/06/23 03:43:46;;;;;;;24.42;15.88;;;;;;;14.47;81.20;101111.91;6308104;22;20018;-82
2022/06/23 03:46:27;;;;;;;24.95;14.23;;;;;;;14.50;80.68;101104.69;6308203;22;20006;-81
2022/06/23 03:48:59;;;;;;;24.55;14.88;;;;;;;14.55;80.17;101112.13;6307862;22;20003;-81
2022/06/23 03:51:31;;;;;;;23.95;14.95;;;;;;;14.47;79.55;101081.53;6307762;22;20007;-82
2022/06/23 03:53:56;;;;;;;21.67;15.00;;;;;;;14.66;79.55;101114.78;6308122;22;20031;-81
2022/06/23 03:56:25;;;;;;;20.73;14.40;;;;;;;14.68;79.46;101118.06;6308045;22;20003;-79
2022/06/23 03:59:12;;;;;;;24.02;13.98;;;;;;;14.34;78.13;101052.19;6307799;22;20441;-81
2022/06/23 04:01:50;;;;;;;20.77;13.55;;;;;;;14.81;77.95;101120.56;6308242;22;20328;-85
2022/06/23 04:04:22;;;;;;;20.92;13.05;;;;;;;14.89;77.24;101129.44;6308168;22;20003;-84
2022/06/23 04:06:50;;;;;;;19.45;13.65;;;;;;;14.64;77.18;101078.47;6307248;22;20056;-81
2022/06/23 04:09:23;;;;;;;20.42;13.85;;;;;;;15.00;76.62;101123.41;6307878;22;20010;-80
2022/06/23 04:11:51;;;;;;;23.05;13.93;;;;;;;15.09;75.67;101127.91;6308076;22;20078;-82
2022/06/23 04:14:28;;;;;;;22.10;13.10;;;;;;;14.90;76.38;101080.88;6307844;22;20010;-79
2022/06/23 04:17:05;;;;;;;17.90;13.10;;;;;;;15.20;75.83;101116.69;6256586;22;20000;-83
2022/06/23 04:20:00;;;;;;;20.10;12.80;;;;;;;15.35;75.61;101120.69;6306755;22;20015;-84
2022/06/23 04:23:00;;;;;;;19.58;13.20;;;;;;;15.12;74.80;101047.03;6307550;22;20003;-84
2022/06/23 04:25:43;;;;;;;22.25;13.10;;;;;;;15.03;73.46;100909.91;6307314;22;20003;-82
2022/06/23 04:28:38;;;;;;;18.80;12.52;;;;;;;17.56;68.84;101103.22;6307631;22;20034;-82
2022/06/23 04:31:06;;;;;;;18.65;12.68;;;;;;;18.52;63.21;101053.53;6305029;22;20352;-79
2022/06/23 04:33:46;;;;;;;19.25;11.82;;;;;;;19.81;62.19;101099.75;6307598;22;20003;-81
2022/06/23 04:36:46;;;;;;;22.55;11.77;;;;;;;19.58;60.04;100923.84;6307440;22;20014;-82
2022/06/23 04:39:29;;;;;;;19.52;10.95;;;;;;;20.77;55.90;100971.22;6307677;22;20006;-84
2022/06/23 04:42:10;;;;;;;16.13;11.30;;;;;;;21.95;53.76;101115.47;6307411;22;20436;-83
2022/06/23 04:44:43;;;;;;;16.77;10.52;;;;;;;22.42;50.33;101109.56;6307281;22;20038;-85
2022/06/23 04:47:17;;;;;;;18.15;10.98;;;;;;;22.33;50.77;101098.22;6307721;22;20015;-81
2022/06/23 04:49:50;;;;;;;17.88;10.77;;;;;;;22.00;50.91;101102.63;6307116;22;20421;-81
2022/06/23 04:52:39;;;;;;;15.80;10.45;;;;;;;21.06;51.58;101037.28;6280300;22;19999;-81
2022/06/23 04:55:25;;;;;;;20.38;10.63;;;;;;;20.74;52.05;101048.44;6307586;22;20007;-83
2022/06/23 04:58:05;;;;;;;16.48;10.07;;;;;;;20.80;53.51;101131.00;6279875;22;20086;-83
2022/06/23 05:00:40;;;;;;;19.08;10.73;;;;;;;21.57;52.43;101122.16;6307197;22;20030;-85
2022/06/23 05:03:20;;;;;;;17.83;10.25;;;;;;;22.77;49.88;101110.13;6307649;22;20416;-82
2022/06/23 05:05:59;;;;;;;15.88;10.40;;;;;;;23.61;46.61;101106.84;6306927;22;20445;-81
2022/06/23 05:08:30;;;;;;;19.55;10.18;;;;;;;24.09;44.99;101089.00;6307471;22;20003;-84
2022/06/23 05:11:01;;;;;;;;;;;;;;;25.45;48.24;101107.13;6307681;22;20444;-86
2022/06/23 05:13:35;;;;;;;13.38;7.88;;;;;;;26.06;43.17;101090.84;6307677;22;20202;-89
2022/06/23 05:16:06;;;;;;;13.05;8.30;;;;;;;26.39;40.02;101084.00;6307206;22;20069;-83
2022/06/23 05:18:38;;;;;;;16.27;9.05;;;;;;;27.00;40.66;101110.59;6307051;22;20003;-82
2022/06/23 05:21:18;;;;;;;13.23;8.30;;;;;;;27.22;40.98;101113.16;6306835;22;20003;-83
2022/06/23 05:23:54;;;;;;;14.35;8.30;;;;;;;27.55;40.11;101103.47;6307119;22;20072;-81
2022/06/23 05:26:31;;;;;;;12.75;7.80;;;;;;;27.98;40.38;101114.56;6306986;22;20070;-81
2022/06/23 05:29:20;;;;;;;17.75;9.35;;;;;;;28.20;39.45;101099.22;6279736;22;20004;-80
2022/06/23 05:31:50;;;;;;;12.85;8.27;;;;;;;28.65;37.21;101125.97;6306616;22;20011;-83
2022/06/23 05:34:28;;;;;;;18.08;10.45;;;;;;;28.45;36.05;101067.56;6306684;22;20017;-84
2022/06/23 05:37:18;;;;;;;18.98;11.30;;;;;;;28.97;36.65;101088.88;6306829;22;20468;-84
2022/06/23 05:39:49;;;;;;;18.65;11.40;;;;;;;29.11;33.99;101109.88;6280735;22;20082;-81
2022/06/23 05:42:25;;;;;;;16.08;10.13;;;;;;;29.35;35.37;101099.53;6307034;22;20363;-77
2022/06/23 05:45:25;;;;;;;17.42;11.05;;;;;;;29.73;36.09;101096.84;6306893;22;19999;-81
2022/06/23 05:47:50;;;;;;;15.65;11.05;;;;;;;29.91;32.98;101096.09;6306601;22;20044;-85
2022/06/23 05:50:21;;;;;;;19.77;11.25;;;;;;;30.04;32.97;101095.97;6278784;22;20417;-82
2022/06/23 05:52:59;;;;;;;14.48;10.23;;;;;;;30.37;33.85;101084.22;6306957;22;20000;-81
2022/06/23 05:55:35;;;;;;;16.63;10.98;;;;;;;30.88;31.30;101097.22;6306652;22;20428;-85
2022/06/23 05:58:13;;;;;;;17.45;10.60;;;;;;;31.20;31.20;101092.50;6307048;22;20010;-83
2022/06/23 06:00:55;;;;;;;16.95;10.65;;;;;;;31.85;30.98;101105.09;6307028;22;20003;-81
2022/06/23 06:03:34;;;;;;;18.05;10.18;;;;;;;31.70;30.81;101076.16;6306571;22;20003;-78
2022/06/23 06:06:01;;;;;;;19.20;10.32;;;;;;;31.61;29.24;101080.19;6279675;22;20053;-78
2022/06/23 06:09:35;;;;;;;20.05;11.00;;;;;;;31.71;29.84;101103.66;6307061;22;20042;-75
2022/06/23 06:11:27;;;;;;;15.73;10.20;;;;;;;31.93;29.28;101105.56;6306319;22;20010;-77
2022/06/23 06:13:53;;;;;;;17.15;9.85;;;;;;;31.57;30.02;101105.75;6306778;22;20022;-79
2022/06/23 06:16:18;;;;;;;13.82;10.27;;;;;;;31.93;29.93;101100.25;6307066;22;20091;-85
2022/06/23 06:18:46;;;;;;;14.82;9.23;;;;;;;32.07;29.92;101092.81;6306887;22;20059;-77
2022/06/23 06:21:16;;;;;;;16.15;10.10;;;;;;;32.20;29.58;101097.13;6306612;22;20026;-85
2022/06/23 06:24:01;;;;;;;14.35;9.10;;;;;;;32.71;29.41;101087.53;6305707;22;20436;-78
2022/06/23 06:26:41;;;;;;;15.23;8.70;;;;;;;32.35;29.64;101065.41;6306744;22;20003;-82
2022/06/23 06:29:21;;;;;;;14.13;9.98;;;;;;;32.97;28.42;101099.59;6306548;22;19999;-80
2022/06/23 06:32:20;;;;;;;16.48;9.90;;;;;;;33.26;28.71;101097.72;6306120;22;20061;-85
2022/06/23 06:34:54;;;;;;;16.95;10.40;;;;;;;32.96;27.69;101074.69;6306411;22;20041;-80
2022/06/23 06:37:27;;;;;;;16.98;9.18;;;;;;;33.12;27.21;101054.38;6306355;22;20014;-80
2022/06/23 06:39:57;;;;;;;15.05;9.32;;;;;;;33.18;27.37;101053.41;6307052;22;20042;-80
2022/06/23 06:42:29;;;;;;;18.25;9.90;;;;;;;33.59;27.46;101044.22;6279246;22;20324;-81
2022/06/23 06:45:02;;;;;;;16.15;10.07;;;;;;;33.80;25.93;101074.00;6306708;22;20003;-81
2022/06/23 06:47:30;;;;;;;17.05;8.73;;;;;;;33.58;27.03;101095.34;6306936;22;20083;-79
2022/06/23 06:50:02;;;;;;;15.70;10.32;;;;;;;33.38;27.63;101058.34;6307646;22;20050;-81
2022/06/23 06:52:28;;;;;;;11.88;9.45;;;;;;;34.08;27.21;101097.22;6308931;22;20059;-82
2022/06/23 06:55:00;;;;;;;16.02;9.68;;;;;;;34.20;27.31;101096.06;6308436;22;20038;-82
2022/06/23 06:57:39;;;;;;;16.20;9.82;;;;;;;34.38;27.33;101103.03;6308998;22;20007;-80
2022/06/23 07:00:11;;;;;;;21.55;10.68;;;;;;;34.50;25.79;101078.78;6308710;22;20007;-82
2022/06/23 07:02:46;;;;;;;16.38;9.77;;;;;;;34.65;26.78;101096.94;6281293;22;20006;-82
2022/06/23 07:05:30;;;;;;;14.95;9.45;;;;;;;34.68;27.13;101093.75;6308329;22;20010;-81
2022/06/23 07:08:11;;;;;;;15.02;10.48;;;;;;;34.71;26.64;101090.56;6308495;22;19999;-80
2022/06/23 07:10:43;;;;;;;15.15;9.68;;;;;;;34.64;26.39;101071.19;6308897;22;20004;-80
2022/06/23 07:13:29;;;;;;;18.27;9.95;;;;;;;34.79;26.48;101069.47;6308685;22;20004;-82
2022/06/23 07:15:59;;;;;;;19.00;9.82;;;;;;;35.04;26.15;101081.59;6308535;22;20149;-80
2022/06/23 07:18:24;;;;;;;;;;;;;;;35.87;26.45;101085.56;6309184;22;20010;-82
2022/06/23 07:20:59;;;;;;;17.23;9.90;;;;;;;35.52;26.51;101102.22;6308245;22;19907;-82
2022/06/23 07:23:32;;;;;;;13.82;10.50;;;;;;;35.64;26.15;101102.84;6308809;22;20282;-82
2022/06/23 07:26:24;;;;;;;19.30;10.23;;;;;;;35.68;25.97;101100.44;6308588;22;20011;-81
2022/06/23 07:28:55;;;;;;;16.38;9.95;;;;;;;35.69;26.12;101093.19;6281282;22;20417;-81
2022/06/23 07:31:31;;;;;;;15.60;11.55;;;;;;;35.68;26.20;101102.31;6308148;22;20383;-82
2022/06/23 07:34:02;;;;;;;13.55;10.88;;;;;;;35.83;25.36;101100.56;6307421;22;20060;-79
2022/06/23 07:36:35;;;;;;;16.75;10.90;;;;;;;35.82;25.52;101103.50;6308230;22;20102;-79
2022/06/23 07:39:09;;;;;;;16.58;11.88;;;;;;;35.78;25.51;101062.09;6307985;22;20003;-77
2022/06/23 07:41:51;;;;;;;18.75;12.82;;;;;;;35.68;25.97;101052.06;6308219;22;20095;-77
2022/06/23 07:44:47;;;;;;;18.38;13.65;;;;;;;34.80;27.77;101071.09;6308230;22;20018;-77
2022/06/23 07:47:16;;;;;;;18.63;13.50;;;;;;;32.50;29.50;101092.47;6306545;22;20068;-77
2022/06/23 07:49:41;;;;;;;22.50;13.95;;;;;;;30.76;33.06;101091.78;6308143;22;20014;-84
2022/06/23 07:52:06;;;;;;;24.38;14.68;;;;;;;29.84;34.76;101100.66;6308148;22;20004;-84
2022/06/23 07:54:32;;;;;;;20.65;13.60;;;;;;;28.93;38.41;101099.13;6307893;22;20110;-84
2022/06/23 07:56:57;;;;;;;28.85;15.13;;;;;;;28.24;39.14;101083.72;6308233;22;20056;-80
2022/06/23 07:59:28;;;;;;;22.45;15.80;;;;;;;27.85;40.32;101087.19;6307319;22;20003;-84
2022/06/23 08:01:59;;;;;;;23.15;15.05;;;;;;;27.67;42.55;101099.22;6307370;22;19999;-80
2022/06/23 08:04:31;;;;;;;22.80;14.55;;;;;;;27.45;41.50;101095.09;6307965;22;20007;-85
2022/06/23 08:07:00;;;;;;;23.73;16.67;;;;;;;27.16;42.38;101093.56;6307840;22;20083;-82
2022/06/23 08:09:33;;;;;;;24.10;15.88;;;;;;;27.34;41.54;101093.03;6280445;22;20014;-82
2022/06/23 08:17:48;;;;;;;23.85;15.60;;;;;;;27.21;43.04;101082.34;6307785;22;20014;-80
2022/06/23 08:20:19;;;;;;;24.23;16.67;;;;;;;26.96;45.75;101052.91;6307884;22;20409;-81
2022/06/23 08:22:46;;;;;;;26.65;15.20;;;;;;;27.32;43.70;101079.94;6307211;22;20448;-81
2022/06/23 08:25:13;;;;;;;24.10;15.77;;;;;;;27.31;45.03;101062.38;6307328;22;20417;-81
2022/06/23 08:27:42;;;;;;;23.52;16.63;;;;;;;27.45;44.04;101071.22;6307531;22;19999;-78
2022/06/23 08:30:10;;;;;;;23.98;16.58;;;;;;;27.43;43.75;101078.53;6307881;22;20102;-88
2022/06/23 08:32:39;;;;;;;24.08;17.52;;;;;;;27.32;44.22;101076.47;6307361;22;20398;-85
2022/06/23 08:35:15;;;;;;;25.25;17.80;;;;;;;26.92;43.91;101025.13;6307638;22;20011;-78
2022/06/23 08:37:52;;;;;;;22.95;17.52;;;;;;;27.22;45.20;101082.16;6307375;22;20004;-79
2022/06/23 08:40:45;;;;;;;25.05;16.65;;;;;;;27.21;46.71;101085.00;6307489;22;20003;-84
2022/06/23 08:43:46;;;;;;;26.05;17.50;;;;;;;27.01;45.02;101069.81;6307398;22;20004;-77
2022/06/23 08:46:46;;;;;;;20.92;13.98;;;;;;;27.08;46.58;101072.53;6279239;22;20003;-75
2022/06/23 08:49:28;;;;;;;26.48;16.85;;;;;;;27.00;46.06;101076.13;6307154;22;20003;-84
2022/06/23 08:52:12;;;;;;;22.45;14.88;;;;;;;27.19;46.90;101084.41;6306822;22;20010;-84
2022/06/23 08:54:53;;;;;;;25.35;15.38;;;;;;;27.25;46.71;101087.06;6307345;22;20005;-77
2022/06/23 08:57:45;;;;;;;24.25;15.55;;;;;;;27.50;45.92;101078.53;6307423;22;20003;-80
2022/06/23 09:00:17;;;;;;;28.00;16.25;;;;;;;27.38;46.00;101067.72;6212586;23;20067;-81
2022/06/23 09:02:48;;;;;;;23.52;16.13;;;;;;;27.49;45.91;101080.38;6212718;23;20024;-81
2022/06/23 09:05:19;;;;;;;24.95;16.45;;;;;;;27.48;45.25;101075.28;6212305;23;20001;-81
2022/06/23 09:08:11;;;;;;;24.98;16.25;;;;;;;27.30;45.54;101052.81;6212681;23;20016;-83
2022/06/23 09:10:53;;;;;;;28.33;16.85;;;;;;;27.33;45.83;101075.44;6123543;23;20006;-80
2022/06/23 09:14:15;;;;;;;23.42;13.90;;;;;;;27.37;47.47;101074.03;6123428;23;20006;-84
2022/06/23 09:16:59;;;;;;;20.70;13.10;;;;;;;27.50;47.46;101070.59;6036495;23;20038;-78
2022/06/23 09:19:33;;;;;;;19.60;15.10;;;;;;;27.62;46.98;101068.97;6036421;23;20035;-77
2022/06/23 09:22:11;;;;;;;24.60;14.25;;;;;;;27.48;46.01;101041.63;6036487;23;20008;-82
2022/06/23 09:24:44;;;;;;;25.67;13.18;;;;;;;27.65;48.24;101068.59;6036781;23;20011;-80
2022/06/23 09:27:15;;;;;;;22.35;12.18;;;;;;;27.84;47.57;101062.50;6036723;23;20408;-83
2022/06/23 09:30:09;;;;;;;25.10;10.27;;;;;;;28.01;47.95;101068.19;6036827;23;20327;-84
2022/06/23 09:32:56;;;;;;;18.15;10.15;;;;;;;28.08;46.97;101061.03;6016771;23;20023;-80
2022/06/23 09:35:40;;;;;;;24.23;12.13;;;;;;;28.11;46.65;101057.97;6008097;23;20011;-80
2022/06/23 09:38:19;;;;;;;20.10;10.50;;;;;;;28.22;46.86;101056.53;6007978;23;20040;-80
2022/06/23 09:41:02;;;;;;;19.30;9.60;;;;;;;28.16;46.68;101054.72;5984358;23;20016;-80
2022/06/23 09:43:54;;;;;;;15.77;8.00;;;;;;;28.32;45.87;101056.13;6008259;23;20394;-79
2022/06/23 09:46:55;;;;;;;15.70;8.15;;;;;;;28.37;46.25;101051.03;6013338;23;20091;-79
2022/06/23 09:49:30;;;;;;;23.17;7.33;;;;;;;28.47;46.84;101048.75;6249298;22;20074;-78
2022/06/23 09:52:27;;;;;;;18.35;7.47;;;;;;;28.55;47.64;101043.19;6276319;22;20007;-81
2022/06/23 09:55:14;;;;;;;14.43;6.28;;;;;;;28.66;46.94;101045.22;6276039;22;20041;-82
2022/06/23 09:57:42;;;;;;;14.95;6.55;;;;;;;28.67;45.67;101041.53;6276009;22;20046;-81
2022/06/23 10:00:11;;;;;;;15.63;6.30;;;;;;;28.70;46.27;101035.78;6275622;22;20417;-82
2022/06/23 10:02:59;;;;;;;15.85;6.22;;;;;;;28.78;45.63;101037.38;6249037;22;20004;-80
2022/06/23 10:05:39;;;;;;;12.10;6.10;;;;;;;28.84;45.55;101031.22;6275892;22;20475;-82
2022/06/23 10:08:20;;;;;;;11.27;5.72;;;;;;;28.98;47.37;101032.00;6275500;22;20429;-86
2022/06/23 10:11:00;;;;;;;15.73;5.63;;;;;;;29.06;46.16;101032.56;6275085;22;20023;-87
2022/06/23 10:13:44;;;;;;;16.27;6.50;;;;;;;28.78;46.25;101000.97;6275929;22;20087;-78
2022/06/23 10:16:43;;;;;;;15.52;6.07;;;;;;;28.91;45.57;101024.09;6275330;22;20061;-79
2022/06/23 10:19:34;;;;;;;14.77;6.68;;;;;;;28.81;46.23;101015.72;6276357;22;20475;-81
2022/06/23 10:22:02;;;;;;;17.95;6.13;;;;;;;28.69;45.65;101028.81;6276213;22;20008;-83
2022/06/23 10:24:48;;;;;;;20.45;7.20;;;;;;;28.79;45.21;101021.22;6276822;22;20003;-78
2022/06/23 10:27:32;;;;;;;16.27;6.10;;;;;;;28.93;46.62;101021.19;6277892;22;20449;-78
2022/06/23 10:30:21;;;;;;;14.55;5.93;;;;;;;28.80;45.93;101019.38;6277556;22;20000;-85
2022/06/23 10:33:06;;;;;;;13.90;6.32;;;;;;;28.57;46.71;101020.69;6301477;22;20037;-79
2022/06/23 10:35:44;;;;;;;14.05;6.03;;;;;;;28.92;47.12;101019.56;6308535;22;20030;-79
2022/06/23 10:38:12;;;;;;;13.50;6.15;;;;;;;29.16;45.51;101018.81;6308832;22;20003;-84
2022/06/23 10:40:46;;;;;;;18.30;6.70;;;;;;;29.45;46.20;101016.56;6308630;22;20413;-79
2022/06/23 10:43:14;;;;;;;18.30;7.10;;;;;;;29.44;45.61;101007.78;6308364;22;20435;-85
2022/06/23 10:45:49;;;;;;;16.08;6.72;;;;;;;29.59;45.84;101008.28;6308977;22;20071;-83
2022/06/23 10:48:35;;;;;;;16.10;6.68;;;;;;;29.77;46.24;101004.84;6308749;22;20317;-83
2022/06/23 10:51:35;;;;;;;16.35;6.70;;;;;;;29.88;45.29;100996.16;6281602;22;20011;-81
2022/06/23 10:54:44;;;;;;;16.25;6.57;;;;;;;29.93;44.98;100991.00;6308276;22;20405;-86
2022/06/23 10:57:37;;;;;;;14.75;6.40;;;;;;;29.98;44.88;101004.44;6184036;23;20014;-84
2022/06/23 11:00:10;;;;;;;19.90;7.35;;;;;;;29.86;45.79;101003.53;6184138;23;20005;-87
2022/06/23 11:02:55;;;;;;;16.27;7.20;;;;;;;29.35;44.71;100966.50;6183999;23;20012;-85
2022/06/23 11:05:48;;;;;;;17.38;7.20;;;;;;;29.25;46.01;100995.44;6183964;23;20067;-81
2022/06/23 11:08:40;;;;;;;17.83;7.32;;;;;;;29.14;45.50;100996.94;6183878;23;20009;-82
2022/06/23 11:11:48;;;;;;;21.13;8.23;;;;;;;28.86;46.14;100998.09;6183585;23;20347;-81
2022/06/23 11:14:43;;;;;;;19.17;7.80;;;;;;;28.92;46.72;100985.00;6183392;23;20094;-87
2022/06/23 11:17:14;;;;;;;18.00;7.95;;;;;;;29.22;47.12;100987.88;6183740;23;20009;-82
2022/06/23 11:19:53;;;;;;;15.20;7.90;;;;;;;29.35;46.96;100985.94;6183788;23;20005;-83
2022/06/23 11:23:06;;;;;;;16.25;8.50;;;;;;;29.42;45.60;100957.44;6183790;23;20032;-81
2022/06/23 11:26:10;;;;;;;18.88;9.38;;;;;;;29.50;45.14;100951.06;6094741;23;20065;-82
2022/06/23 11:29:32;;;;;;;17.05;8.88;;;;;;;29.63;45.92;100990.88;6123634;23;20380;-83
2022/06/23 11:32:35;;;;;;;18.42;8.43;;;;;;;29.88;45.29;100990.81;6135347;23;20379;-83
2022/06/23 11:36:11;;;;;;;17.50;8.48;;;;;;;30.15;45.52;100985.25;6127079;23;20145;-83
2022/06/23 11:39:03;;;;;;;16.92;9.52;;;;;;;30.11;43.61;100984.09;6124024;23;20024;-85
2022/06/23 11:45:45;;;;;;;17.30;8.02;;;;;;;30.32;45.59;100974.84;6124358;23;20068;-84
2022/06/23 11:49:04;;;;;;;14.82;8.10;;;;;;;30.38;44.62;100974.72;6124521;23;20380;-84
2022/06/23 11:51:47;;;;;;;11.75;7.20;;;;;;;30.12;43.85;100967.06;6124334;23;20012;-83
2022/06/23 11:54:24;;;;;;;14.95;7.63;;;;;;;29.80;43.24;100977.81;6124112;23;20117;-85
2022/06/23 11:57:06;;;;;;;17.73;7.35;;;;;;;29.72;44.23;100974.63;6124108;23;20010;-84
2022/06/23 11:59:43;;;;;;;15.68;6.70;;;;;;;29.59;43.92;100928.44;6212020;22;20429;-86
2022/06/23 12:02:12;;;;;;;18.17;6.57;;;;;;;30.08;43.34;100958.69;6275822;22;20077;-84
2022/06/23 12:05:22;;;;;;;15.77;6.38;;;;;;;30.39;43.26;100968.38;6277090;22;20008;-86
2022/06/23 12:08:27;;;;;;;14.48;6.90;;;;;;;30.56;42.46;100944.59;6276018;22;20452;-83
2022/06/23 12:10:55;;;;;;;18.92;6.53;;;;;;;30.22;41.59;100949.53;6275749;22;20007;-85
2022/06/23 12:27:24;;;;;;;19.15;6.40;;;;;;;30.46;41.84;100955.78;6274998;22;20060;-80
2022/06/23 12:30:28;;;;;;;16.08;6.40;;;;;;;30.27;42.76;100954.16;6276919;22;20007;-82
2022/06/23 12:58:59;;;;;;;16.75;7.05;;;;;;;30.94;40.58;100933.59;6153290;23;20023;-79
2022/06/23 13:02:17;;;;;;;18.63;7.63;;;;;;;30.93;40.81;100937.31;6065751;23;20018;-83
2022/06/23 13:04:47;;;;;;;13.77;6.68;;;;;;;30.69;42.10;100928.44;6066332;23;20022;-81